sensor_id;sensor_type;location;lat;lon;timestamp;P1;durP1;ratioP1;P2;durP2;ratioP2
59766;SDS011;46248;58.364;25.582;2023-04-03T00:02:08;2.60;;;0.95;;
59766;SDS011;46248;58.364;25.582;2023-04-03T00:05:30;1.55;;;0.88;;
59766;SDS011;46248;58.364;25.582;2023-04-03T00:08:52;3.47;;;1.52;;
59766;SDS011;46248;58.364;25.582;2023-04-03T00:12:14;3.92;;;1.73;;
59766;SDS011;46248;58.364;25.582;2023-04-03T00:15:36;6.28;;;1.25;;
59766;SDS011;46248;58.364;25.582;2023-04-03T00:19:00;1.98;;;1.40;;
59766;SDS011;46248;58.364;25.582;2023-04-03T00:22:22;2.65;;;1.23;;
59766;SDS011;46248;58.364;25.582;2023-04-03T00:25:46;1.83;;;1.17;;
59766;SDS011;46248;58.364;25.582;2023-04-03T00:29:08;4.75;;;1.63;;
59766;SDS011;46248;58.364;25.582;2023-04-03T00:32:30;4.25;;;1.15;;
59766;SDS011;46248;58.364;25.582;2023-04-03T00:35:53;2.90;;;1.45;;
59766;SDS011;46248;58.364;25.582;2023-04-03T00:39:15;1.42;;;1.00;;
59766;SDS011;46248;58.364;25.582;2023-04-03T00:42:37;1.50;;;1.38;;
59766;SDS011;46248;58.364;25.582;2023-04-03T00:46:01;2.20;;;1.30;;
59766;SDS011;46248;58.364;25.582;2023-04-03T00:49:23;2.40;;;0.93;;
59766;SDS011;46248;58.364;25.582;2023-04-03T00:52:46;5.47;;;1.42;;
59766;SDS011;46248;58.364;25.582;2023-04-03T00:56:09;3.55;;;1.63;;
59766;SDS011;46248;58.364;25.582;2023-04-03T00:59:34;2.53;;;1.05;;
59766;SDS011;46248;58.364;25.582;2023-04-03T01:03:01;2.55;;;1.27;;
59766;SDS011;46248;58.364;25.582;2023-04-03T01:06:24;2.20;;;0.95;;
59766;SDS011;46248;58.364;25.582;2023-04-03T01:09:53;3.53;;;1.20;;
59766;SDS011;46248;58.364;25.582;2023-04-03T01:13:22;2.05;;;1.17;;
59766;SDS011;46248;58.364;25.582;2023-04-03T01:16:51;1.42;;;1.05;;
59766;SDS011;46248;58.364;25.582;2023-04-03T01:20:20;1.90;;;1.10;;
59766;SDS011;46248;58.364;25.582;2023-04-03T01:24:07;1.20;;;1.08;;
59766;SDS011;46248;58.364;25.582;2023-04-03T01:27:51;2.47;;;1.27;;
59766;SDS011;46248;58.364;25.582;2023-04-03T01:31:15;2.58;;;1.27;;
59766;SDS011;46248;58.364;25.582;2023-04-03T01:34:45;1.13;;;1.02;;
59766;SDS011;46248;58.364;25.582;2023-04-03T01:38:07;1.52;;;1.05;;
59766;SDS011;46248;58.364;25.582;2023-04-03T01:41:29;1.77;;;1.42;;
59766;SDS011;46248;58.364;25.582;2023-04-03T01:44:50;2.55;;;1.20;;
59766;SDS011;46248;58.364;25.582;2023-04-03T01:48:13;9.88;;;2.80;;
59766;SDS011;46248;58.364;25.582;2023-04-03T01:51:37;4.47;;;2.10;;
59766;SDS011;46248;58.364;25.582;2023-04-03T01:54:59;3.83;;;1.95;;
59766;SDS011;46248;58.364;25.582;2023-04-03T01:58:20;3.30;;;2.35;;
59766;SDS011;46248;58.364;25.582;2023-04-03T02:01:42;3.50;;;2.10;;
59766;SDS011;46248;58.364;25.582;2023-04-03T02:05:05;4.07;;;2.00;;
59766;SDS011;46248;58.364;25.582;2023-04-03T02:08:29;6.60;;;2.38;;
59766;SDS011;46248;58.364;25.582;2023-04-03T02:11:51;5.10;;;2.78;;
59766;SDS011;46248;58.364;25.582;2023-04-03T02:15:13;4.18;;;1.85;;
59766;SDS011;46248;58.364;25.582;2023-04-03T02:18:35;3.92;;;1.63;;
59766;SDS011;46248;58.364;25.582;2023-04-03T02:21:58;5.22;;;1.67;;
59766;SDS011;46248;58.364;25.582;2023-04-03T02:25:21;3.00;;;1.70;;
59766;SDS011;46248;58.364;25.582;2023-04-03T02:28:43;4.38;;;2.25;;
59766;SDS011;46248;58.364;25.582;2023-04-03T02:32:05;3.78;;;2.03;;
59766;SDS011;46248;58.364;25.582;2023-04-03T02:35:27;5.40;;;2.67;;
59766;SDS011;46248;58.364;25.582;2023-04-03T02:38:49;3.33;;;2.70;;
59766;SDS011;46248;58.364;25.582;2023-04-03T02:42:12;5.93;;;2.35;;
59766;SDS011;46248;58.364;25.582;2023-04-03T02:45:34;8.02;;;2.58;;
59766;SDS011;46248;58.364;25.582;2023-04-03T02:48:56;5.15;;;2.00;;
59766;SDS011;46248;58.364;25.582;2023-04-03T02:52:18;3.78;;;1.70;;
59766;SDS011;46248;58.364;25.582;2023-04-03T02:55:40;3.92;;;1.70;;
59766;SDS011;46248;58.364;25.582;2023-04-03T02:59:03;9.57;;;2.20;;
59766;SDS011;46248;58.364;25.582;2023-04-03T03:02:26;3.05;;;1.88;;
59766;SDS011;46248;58.364;25.582;2023-04-03T03:05:47;2.63;;;2.10;;
59766;SDS011;46248;58.364;25.582;2023-04-03T03:09:09;6.90;;;2.85;;
59766;SDS011;46248;58.364;25.582;2023-04-03T03:12:31;3.17;;;1.88;;
59766;SDS011;46248;58.364;25.582;2023-04-03T03:15:54;3.70;;;1.88;;
59766;SDS011;46248;58.364;25.582;2023-04-03T03:19:16;5.32;;;2.20;;
59766;SDS011;46248;58.364;25.582;2023-04-03T03:22:38;6.05;;;2.33;;
59766;SDS011;46248;58.364;25.582;2023-04-03T03:26:01;5.82;;;2.35;;
59766;SDS011;46248;58.364;25.582;2023-04-03T03:29:24;5.00;;;2.70;;
59766;SDS011;46248;58.364;25.582;2023-04-03T03:32:47;5.82;;;3.03;;
59766;SDS011;46248;58.364;25.582;2023-04-03T03:36:09;6.47;;;3.25;;
59766;SDS011;46248;58.364;25.582;2023-04-03T03:39:32;6.95;;;1.90;;
59766;SDS011;46248;58.364;25.582;2023-04-03T03:42:54;6.53;;;3.17;;
59766;SDS011;46248;58.364;25.582;2023-04-03T03:46:16;2.67;;;1.95;;
59766;SDS011;46248;58.364;25.582;2023-04-03T03:49:40;5.93;;;2.10;;
59766;SDS011;46248;58.364;25.582;2023-04-03T03:53:02;5.88;;;2.10;;
59766;SDS011;46248;58.364;25.582;2023-04-03T03:56:24;6.55;;;2.42;;
59766;SDS011;46248;58.364;25.582;2023-04-03T03:59:46;7.60;;;2.38;;
59766;SDS011;46248;58.364;25.582;2023-04-03T04:03:09;3.53;;;2.28;;
59766;SDS011;46248;58.364;25.582;2023-04-03T04:06:32;5.55;;;2.42;;
59766;SDS011;46248;58.364;25.582;2023-04-03T04:09:54;8.35;;;2.85;;
59766;SDS011;46248;58.364;25.582;2023-04-03T04:13:16;5.57;;;1.70;;
59766;SDS011;46248;58.364;25.582;2023-04-03T04:16:38;7.90;;;2.80;;
59766;SDS011;46248;58.364;25.582;2023-04-03T04:20:00;11.68;;;4.25;;
59766;SDS011;46248;58.364;25.582;2023-04-03T04:23:24;15.52;;;5.32;;
59766;SDS011;46248;58.364;25.582;2023-04-03T04:26:46;31.20;;;8.32;;
59766;SDS011;46248;58.364;25.582;2023-04-03T04:30:08;17.40;;;5.75;;
59766;SDS011;46248;58.364;25.582;2023-04-03T04:33:32;9.15;;;4.00;;
59766;SDS011;46248;58.364;25.582;2023-04-03T04:36:53;12.07;;;4.85;;
59766;SDS011;46248;58.364;25.582;2023-04-03T04:40:17;7.20;;;2.80;;
59766;SDS011;46248;58.364;25.582;2023-04-03T04:43:39;10.80;;;3.13;;
59766;SDS011;46248;58.364;25.582;2023-04-03T04:47:01;6.63;;;2.50;;
59766;SDS011;46248;58.364;25.582;2023-04-03T04:50:23;4.30;;;1.48;;
59766;SDS011;46248;58.364;25.582;2023-04-03T04:53:44;3.92;;;2.35;;
59766;SDS011;46248;58.364;25.582;2023-04-03T04:57:08;9.80;;;2.25;;
59766;SDS011;46248;58.364;25.582;2023-04-03T05:00:31;6.25;;;2.00;;
59766;SDS011;46248;58.364;25.582;2023-04-03T05:03:52;7.40;;;2.15;;
59766;SDS011;46248;58.364;25.582;2023-04-03T05:07:15;8.23;;;2.15;;
59766;SDS011;46248;58.364;25.582;2023-04-03T05:10:37;4.65;;;1.92;;
59766;SDS011;46248;58.364;25.582;2023-04-03T05:14:02;8.48;;;2.15;;
59766;SDS011;46248;58.364;25.582;2023-04-03T05:17:26;4.35;;;2.05;;
59766;SDS011;46248;58.364;25.582;2023-04-03T05:20:48;3.65;;;1.65;;
59766;SDS011;46248;58.364;25.582;2023-04-03T05:24:11;6.53;;;2.30;;
59766;SDS011;46248;58.364;25.582;2023-04-03T05:27:33;3.63;;;1.83;;
59766;SDS011;46248;58.364;25.582;2023-04-03T05:30:56;9.65;;;2.33;;
59766;SDS011;46248;58.364;25.582;2023-04-03T05:34:19;7.63;;;2.45;;
59766;SDS011;46248;58.364;25.582;2023-04-03T05:37:40;5.05;;;1.73;;
59766;SDS011;46248;58.364;25.582;2023-04-03T05:41:02;5.22;;;1.48;;
59766;SDS011;46248;58.364;25.582;2023-04-03T05:44:24;3.85;;;1.45;;
59766;SDS011;46248;58.364;25.582;2023-04-03T05:47:47;2.85;;;1.33;;
59766;SDS011;46248;58.364;25.582;2023-04-03T05:51:13;5.47;;;1.90;;
59766;SDS011;46248;58.364;25.582;2023-04-03T05:54:37;4.93;;;1.35;;
59766;SDS011;46248;58.364;25.582;2023-04-03T05:57:59;4.53;;;1.42;;
59766;SDS011;46248;58.364;25.582;2023-04-03T06:01:21;3.45;;;1.38;;
59766;SDS011;46248;58.364;25.582;2023-04-03T06:04:45;7.70;;;1.90;;
59766;SDS011;46248;58.364;25.582;2023-04-03T06:08:08;2.45;;;1.30;;
59766;SDS011;46248;58.364;25.582;2023-04-03T06:11:30;3.55;;;1.58;;
59766;SDS011;46248;58.364;25.582;2023-04-03T06:14:52;2.85;;;1.95;;
59766;SDS011;46248;58.364;25.582;2023-04-03T06:18:14;4.07;;;1.58;;
59766;SDS011;46248;58.364;25.582;2023-04-03T06:21:37;3.92;;;1.38;;
59766;SDS011;46248;58.364;25.582;2023-04-03T06:24:59;5.43;;;1.70;;
59766;SDS011;46248;58.364;25.582;2023-04-03T06:28:21;5.60;;;2.17;;
59766;SDS011;46248;58.364;25.582;2023-04-03T06:31:45;7.20;;;2.72;;
59766;SDS011;46248;58.364;25.582;2023-04-03T06:35:07;4.88;;;2.03;;
59766;SDS011;46248;58.364;25.582;2023-04-03T06:38:31;4.70;;;1.75;;
59766;SDS011;46248;58.364;25.582;2023-04-03T06:41:54;6.47;;;1.35;;
59766;SDS011;46248;58.364;25.582;2023-04-03T06:45:16;19.60;;;3.22;;
59766;SDS011;46248;58.364;25.582;2023-04-03T06:48:39;8.20;;;2.00;;
59766;SDS011;46248;58.364;25.582;2023-04-03T06:52:01;9.77;;;1.67;;
59766;SDS011;46248;58.364;25.582;2023-04-03T06:55:26;7.07;;;2.05;;
59766;SDS011;46248;58.364;25.582;2023-04-03T06:58:48;5.10;;;1.27;;
59766;SDS011;46248;58.364;25.582;2023-04-03T07:02:11;2.13;;;1.27;;
59766;SDS011;46248;58.364;25.582;2023-04-03T07:05:34;8.57;;;2.58;;
59766;SDS011;46248;58.364;25.582;2023-04-03T07:08:56;6.53;;;2.35;;
59766;SDS011;46248;58.364;25.582;2023-04-03T07:12:19;7.47;;;1.52;;
59766;SDS011;46248;58.364;25.582;2023-04-03T07:15:41;5.47;;;2.13;;
59766;SDS011;46248;58.364;25.582;2023-04-03T07:19:03;5.35;;;2.08;;
59766;SDS011;46248;58.364;25.582;2023-04-03T07:22:25;4.30;;;2.10;;
59766;SDS011;46248;58.364;25.582;2023-04-03T07:25:47;6.57;;;1.33;;
59766;SDS011;46248;58.364;25.582;2023-04-03T07:29:12;3.53;;;1.23;;
59766;SDS011;46248;58.364;25.582;2023-04-03T07:32:34;9.27;;;2.50;;
59766;SDS011;46248;58.364;25.582;2023-04-03T07:35:56;6.43;;;2.17;;
59766;SDS011;46248;58.364;25.582;2023-04-03T07:39:19;7.20;;;1.50;;
59766;SDS011;46248;58.364;25.582;2023-04-03T07:42:41;4.80;;;1.52;;
59766;SDS011;46248;58.364;25.582;2023-04-03T07:46:05;14.20;;;1.30;;
59766;SDS011;46248;58.364;25.582;2023-04-03T07:49:27;5.00;;;1.52;;
59766;SDS011;46248;58.364;25.582;2023-04-03T07:52:49;7.55;;;1.55;;
59766;SDS011;46248;58.364;25.582;2023-04-03T07:56:13;1.73;;;1.30;;
59766;SDS011;46248;58.364;25.582;2023-04-03T07:59:35;4.53;;;1.67;;
59766;SDS011;46248;58.364;25.582;2023-04-03T08:02:58;3.30;;;1.05;;
59766;SDS011;46248;58.364;25.582;2023-04-03T08:06:20;4.53;;;1.45;;
59766;SDS011;46248;58.364;25.582;2023-04-03T08:09:56;3.92;;;1.63;;
59766;SDS011;46248;58.364;25.582;2023-04-03T08:13:19;3.63;;;1.42;;
59766;SDS011;46248;58.364;25.582;2023-04-03T08:16:41;3.72;;;1.40;;
59766;SDS011;46248;58.364;25.582;2023-04-03T08:20:05;7.35;;;1.88;;
59766;SDS011;46248;58.364;25.582;2023-04-03T08:23:28;4.80;;;1.20;;
59766;SDS011;46248;58.364;25.582;2023-04-03T08:26:50;9.32;;;2.35;;
59766;SDS011;46248;58.364;25.582;2023-04-03T08:30:12;7.45;;;1.90;;
59766;SDS011;46248;58.364;25.582;2023-04-03T08:33:34;8.13;;;1.83;;
59766;SDS011;46248;58.364;25.582;2023-04-03T08:36:58;6.80;;;2.38;;
59766;SDS011;46248;58.364;25.582;2023-04-03T08:40:20;3.88;;;1.40;;
59766;SDS011;46248;58.364;25.582;2023-04-03T08:43:47;3.60;;;2.33;;
59766;SDS011;46248;58.364;25.582;2023-04-03T08:47:19;6.78;;;2.58;;
59766;SDS011;46248;58.364;25.582;2023-04-03T08:50:46;4.25;;;1.30;;
59766;SDS011;46248;58.364;25.582;2023-04-03T08:54:14;3.35;;;1.35;;
59766;SDS011;46248;58.364;25.582;2023-04-03T08:57:45;3.42;;;2.13;;
59766;SDS011;46248;58.364;25.582;2023-04-03T09:01:14;5.57;;;1.52;;
59766;SDS011;46248;58.364;25.582;2023-04-03T09:04:40;1.92;;;1.35;;
59766;SDS011;46248;58.364;25.582;2023-04-03T09:08:04;5.32;;;1.50;;
59766;SDS011;46248;58.364;25.582;2023-04-03T09:11:39;7.10;;;2.35;;
59766;SDS011;46248;58.364;25.582;2023-04-03T09:15:10;5.47;;;1.95;;
59766;SDS011;46248;58.364;25.582;2023-04-03T09:18:51;3.20;;;2.05;;
59766;SDS011;46248;58.364;25.582;2023-04-03T09:22:20;8.68;;;2.80;;
59766;SDS011;46248;58.364;25.582;2023-04-03T09:25:44;5.45;;;1.80;;
59766;SDS011;46248;58.364;25.582;2023-04-03T09:29:08;5.78;;;1.48;;
59766;SDS011;46248;58.364;25.582;2023-04-03T09:32:39;3.28;;;1.45;;
59766;SDS011;46248;58.364;25.582;2023-04-03T09:36:03;5.93;;;3.03;;
59766;SDS011;46248;58.364;25.582;2023-04-03T09:39:26;6.10;;;1.60;;
59766;SDS011;46248;58.364;25.582;2023-04-03T09:42:49;5.82;;;1.90;;
59766;SDS011;46248;58.364;25.582;2023-04-03T09:46:30;5.85;;;2.03;;
59766;SDS011;46248;58.364;25.582;2023-04-03T09:50:08;3.97;;;1.80;;
59766;SDS011;46248;58.364;25.582;2023-04-03T09:53:40;8.82;;;4.55;;
59766;SDS011;46248;58.364;25.582;2023-04-03T09:57:06;49.42;;;14.43;;
59766;SDS011;46248;58.364;25.582;2023-04-03T10:04:06;7.28;;;2.10;;
59766;SDS011;46248;58.364;25.582;2023-04-03T10:07:31;5.82;;;1.20;;
59766;SDS011;46248;58.364;25.582;2023-04-03T10:11:06;3.28;;;1.25;;
59766;SDS011;46248;58.364;25.582;2023-04-03T10:14:36;8.27;;;1.58;;
59766;SDS011;46248;58.364;25.582;2023-04-03T10:18:00;3.33;;;2.05;;
59766;SDS011;46248;58.364;25.582;2023-04-03T10:21:43;4.07;;;2.42;;
59766;SDS011;46248;58.364;25.582;2023-04-03T10:25:11;7.60;;;4.47;;
59766;SDS011;46248;58.364;25.582;2023-04-03T10:28:42;13.57;;;3.33;;
59766;SDS011;46248;58.364;25.582;2023-04-03T10:35:41;5.03;;;1.55;;
59766;SDS011;46248;58.364;25.582;2023-04-03T10:39:18;1.60;;;1.33;;
59766;SDS011;46248;58.364;25.582;2023-04-03T10:42:49;6.22;;;1.55;;
59766;SDS011;46248;58.364;25.582;2023-04-03T10:46:18;13.98;;;6.82;;
59766;SDS011;46248;58.364;25.582;2023-04-03T10:49:51;3.50;;;1.05;;
59766;SDS011;46248;58.364;25.582;2023-04-03T10:53:23;4.55;;;1.98;;
59766;SDS011;46248;58.364;25.582;2023-04-03T10:56:54;4.80;;;1.63;;
59766;SDS011;46248;58.364;25.582;2023-04-03T11:00:34;6.07;;;1.93;;
59766;SDS011;46248;58.364;25.582;2023-04-03T11:04:00;8.07;;;1.67;;
59766;SDS011;46248;58.364;25.582;2023-04-03T11:07:26;6.00;;;2.08;;
59766;SDS011;46248;58.364;25.582;2023-04-03T11:10:52;8.73;;;1.90;;
59766;SDS011;46248;58.364;25.582;2023-04-03T11:14:21;4.47;;;1.20;;
59766;SDS011;46248;58.364;25.582;2023-04-03T11:17:50;4.45;;;2.15;;
59766;SDS011;46248;58.364;25.582;2023-04-03T11:21:17;4.07;;;1.98;;
59766;SDS011;46248;58.364;25.582;2023-04-03T11:24:43;5.35;;;1.83;;
59766;SDS011;46248;58.364;25.582;2023-04-03T11:28:13;2.85;;;1.88;;
59766;SDS011;46248;58.364;25.582;2023-04-03T11:31:41;6.00;;;2.08;;
59766;SDS011;46248;58.364;25.582;2023-04-03T11:35:12;4.07;;;1.40;;
59766;SDS011;46248;58.364;25.582;2023-04-03T11:38:35;5.03;;;1.80;;
59766;SDS011;46248;58.364;25.582;2023-04-03T11:42:13;4.53;;;1.80;;
59766;SDS011;46248;58.364;25.582;2023-04-03T11:45:40;13.48;;;5.80;;
59766;SDS011;46248;58.364;25.582;2023-04-03T11:49:21;6.40;;;3.33;;
59766;SDS011;46248;58.364;25.582;2023-04-03T11:53:30;9.95;;;3.50;;
59766;SDS011;46248;58.364;25.582;2023-04-03T11:56:54;2.88;;;1.92;;
59766;SDS011;46248;58.364;25.582;2023-04-03T12:04:11;5.40;;;2.45;;
59766;SDS011;46248;58.364;25.582;2023-04-03T12:07:37;4.20;;;1.92;;
59766;SDS011;46248;58.364;25.582;2023-04-03T12:11:14;9.95;;;4.10;;
59766;SDS011;46248;58.364;25.582;2023-04-03T12:14:42;4.95;;;1.70;;
59766;SDS011;46248;58.364;25.582;2023-04-03T12:22:15;7.18;;;2.00;;
59766;SDS011;46248;58.364;25.582;2023-04-03T12:25:47;6.20;;;2.45;;
59766;SDS011;46248;58.364;25.582;2023-04-03T12:29:13;5.10;;;1.90;;
59766;SDS011;46248;58.364;25.582;2023-04-03T12:32:44;5.47;;;1.70;;
59766;SDS011;46248;58.364;25.582;2023-04-03T12:36:35;16.95;;;5.70;;
59766;SDS011;46248;58.364;25.582;2023-04-03T12:40:09;5.68;;;2.45;;
59766;SDS011;46248;58.364;25.582;2023-04-03T12:43:53;17.50;;;7.88;;
59766;SDS011;46248;58.364;25.582;2023-04-03T12:47:27;7.30;;;2.38;;
59766;SDS011;46248;58.364;25.582;2023-04-03T12:50:53;6.72;;;2.50;;
59766;SDS011;46248;58.364;25.582;2023-04-03T12:54:17;3.97;;;1.90;;
59766;SDS011;46248;58.364;25.582;2023-04-03T12:57:43;5.80;;;2.00;;
59766;SDS011;46248;58.364;25.582;2023-04-03T13:01:09;12.57;;;4.85;;
59766;SDS011;46248;58.364;25.582;2023-04-03T13:04:34;6.68;;;2.75;;
59766;SDS011;46248;58.364;25.582;2023-04-03T13:07:59;6.75;;;2.80;;
59766;SDS011;46248;58.364;25.582;2023-04-03T13:11:25;9.25;;;2.58;;
59766;SDS011;46248;58.364;25.582;2023-04-03T13:14:52;5.53;;;3.13;;
59766;SDS011;46248;58.364;25.582;2023-04-03T13:18:27;3.05;;;1.73;;
59766;SDS011;46248;58.364;25.582;2023-04-03T13:21:51;9.30;;;3.05;;
59766;SDS011;46248;58.364;25.582;2023-04-03T13:25:19;7.50;;;3.33;;
59766;SDS011;46248;58.364;25.582;2023-04-03T13:28:44;3.60;;;2.45;;
59766;SDS011;46248;58.364;25.582;2023-04-03T13:32:07;8.05;;;3.42;;
59766;SDS011;46248;58.364;25.582;2023-04-03T13:35:41;3.30;;;2.25;;
59766;SDS011;46248;58.364;25.582;2023-04-03T13:39:05;4.88;;;2.28;;
59766;SDS011;46248;58.364;25.582;2023-04-03T13:42:29;7.20;;;5.20;;
59766;SDS011;46248;58.364;25.582;2023-04-03T13:46:03;7.30;;;4.55;;
59766;SDS011;46248;58.364;25.582;2023-04-03T13:49:42;6.28;;;3.38;;
59766;SDS011;46248;58.364;25.582;2023-04-03T13:53:11;8.20;;;3.20;;
59766;SDS011;46248;58.364;25.582;2023-04-03T13:56:35;5.93;;;3.35;;
59766;SDS011;46248;58.364;25.582;2023-04-03T13:59:59;3.03;;;1.90;;
59766;SDS011;46248;58.364;25.582;2023-04-03T14:03:22;6.57;;;2.88;;
59766;SDS011;46248;58.364;25.582;2023-04-03T14:06:47;13.73;;;4.85;;
59766;SDS011;46248;58.364;25.582;2023-04-03T14:10:11;5.85;;;2.78;;
59766;SDS011;46248;58.364;25.582;2023-04-03T14:13:33;15.57;;;6.20;;
59766;SDS011;46248;58.364;25.582;2023-04-03T14:16:55;11.02;;;4.85;;
59766;SDS011;46248;58.364;25.582;2023-04-03T14:20:21;11.27;;;5.20;;
59766;SDS011;46248;58.364;25.582;2023-04-03T14:23:47;13.32;;;5.22;;
59766;SDS011;46248;58.364;25.582;2023-04-03T14:27:13;13.45;;;6.18;;
59766;SDS011;46248;58.364;25.582;2023-04-03T14:30:38;9.75;;;5.45;;
59766;SDS011;46248;58.364;25.582;2023-04-03T14:34:00;13.88;;;4.47;;
59766;SDS011;46248;58.364;25.582;2023-04-03T14:37:23;6.57;;;4.40;;
59766;SDS011;46248;58.364;25.582;2023-04-03T14:40:46;8.82;;;4.30;;
59766;SDS011;46248;58.364;25.582;2023-04-03T14:44:09;12.65;;;4.60;;
59766;SDS011;46248;58.364;25.582;2023-04-03T14:47:31;11.15;;;3.20;;
59766;SDS011;46248;58.364;25.582;2023-04-03T14:50:54;6.40;;;3.10;;
59766;SDS011;46248;58.364;25.582;2023-04-03T14:54:24;5.13;;;2.13;;
59766;SDS011;46248;58.364;25.582;2023-04-03T14:57:48;10.25;;;2.75;;
59766;SDS011;46248;58.364;25.582;2023-04-03T15:01:11;7.57;;;2.42;;
59766;SDS011;46248;58.364;25.582;2023-04-03T15:04:34;6.35;;;3.55;;
59766;SDS011;46248;58.364;25.582;2023-04-03T15:07:56;19.67;;;8.38;;
59766;SDS011;46248;58.364;25.582;2023-04-03T15:11:20;21.63;;;9.45;;
59766;SDS011;46248;58.364;25.582;2023-04-03T15:14:42;8.20;;;4.18;;
59766;SDS011;46248;58.364;25.582;2023-04-03T15:18:17;7.53;;;3.25;;
59766;SDS011;46248;58.364;25.582;2023-04-03T15:21:41;7.50;;;3.80;;
59766;SDS011;46248;58.364;25.582;2023-04-03T15:25:03;8.70;;;3.13;;
59766;SDS011;46248;58.364;25.582;2023-04-03T15:28:26;4.10;;;2.22;;
59766;SDS011;46248;58.364;25.582;2023-04-03T15:31:50;5.57;;;2.72;;
59766;SDS011;46248;58.364;25.582;2023-04-03T15:35:15;9.20;;;3.90;;
59766;SDS011;46248;58.364;25.582;2023-04-03T15:38:37;8.85;;;3.10;;
59766;SDS011;46248;58.364;25.582;2023-04-03T15:41:59;8.43;;;2.28;;
59766;SDS011;46248;58.364;25.582;2023-04-03T15:45:27;8.68;;;3.80;;
59766;SDS011;46248;58.364;25.582;2023-04-03T15:48:51;4.97;;;3.05;;
59766;SDS011;46248;58.364;25.582;2023-04-03T15:52:14;8.80;;;3.42;;
59766;SDS011;46248;58.364;25.582;2023-04-03T15:55:37;7.80;;;3.25;;
59766;SDS011;46248;58.364;25.582;2023-04-03T15:59:00;8.05;;;3.58;;
59766;SDS011;46248;58.364;25.582;2023-04-03T16:02:21;7.07;;;3.00;;
59766;SDS011;46248;58.364;25.582;2023-04-03T16:05:47;12.32;;;4.10;;
59766;SDS011;46248;58.364;25.582;2023-04-03T16:09:12;11.98;;;4.97;;
59766;SDS011;46248;58.364;25.582;2023-04-03T16:12:34;8.20;;;3.15;;
59766;SDS011;46248;58.364;25.582;2023-04-03T16:15:56;8.38;;;2.95;;
59766;SDS011;46248;58.364;25.582;2023-04-03T16:19:18;12.60;;;2.70;;
59766;SDS011;46248;58.364;25.582;2023-04-03T16:22:44;6.03;;;2.88;;
59766;SDS011;46248;58.364;25.582;2023-04-03T16:26:08;10.57;;;2.65;;
59766;SDS011;46248;58.364;25.582;2023-04-03T16:29:30;8.93;;;2.75;;
59766;SDS011;46248;58.364;25.582;2023-04-03T16:32:54;9.45;;;2.97;;
59766;SDS011;46248;58.364;25.582;2023-04-03T16:36:16;5.90;;;3.60;;
59766;SDS011;46248;58.364;25.582;2023-04-03T16:39:38;11.20;;;7.05;;
59766;SDS011;46248;58.364;25.582;2023-04-03T16:43:02;7.68;;;4.32;;
59766;SDS011;46248;58.364;25.582;2023-04-03T16:46:24;10.25;;;4.78;;
59766;SDS011;46248;58.364;25.582;2023-04-03T16:49:46;6.88;;;2.95;;
59766;SDS011;46248;58.364;25.582;2023-04-03T16:53:08;8.63;;;3.45;;
59766;SDS011;46248;58.364;25.582;2023-04-03T16:56:29;7.18;;;3.40;;
59766;SDS011;46248;58.364;25.582;2023-04-03T16:59:53;6.35;;;3.13;;
59766;SDS011;46248;58.364;25.582;2023-04-03T17:03:16;7.13;;;3.08;;
59766;SDS011;46248;58.364;25.582;2023-04-03T17:06:38;5.80;;;2.78;;
59766;SDS011;46248;58.364;25.582;2023-04-03T17:10:00;5.07;;;3.40;;
59766;SDS011;46248;58.364;25.582;2023-04-03T17:13:22;8.15;;;3.03;;
59766;SDS011;46248;58.364;25.582;2023-04-03T17:16:52;6.43;;;3.13;;
59766;SDS011;46248;58.364;25.582;2023-04-03T17:20:14;7.65;;;3.83;;
59766;SDS011;46248;58.364;25.582;2023-04-03T17:23:37;16.65;;;7.05;;
59766;SDS011;46248;58.364;25.582;2023-04-03T17:27:00;8.50;;;3.88;;
59766;SDS011;46248;58.364;25.582;2023-04-03T17:30:23;10.05;;;4.45;;
59766;SDS011;46248;58.364;25.582;2023-04-03T17:33:46;12.00;;;5.03;;
59766;SDS011;46248;58.364;25.582;2023-04-03T17:37:08;9.95;;;4.82;;
59766;SDS011;46248;58.364;25.582;2023-04-03T17:40:30;8.63;;;3.60;;
59766;SDS011;46248;58.364;25.582;2023-04-03T17:43:54;12.02;;;5.00;;
59766;SDS011;46248;58.364;25.582;2023-04-03T17:47:16;13.80;;;5.88;;
59766;SDS011;46248;58.364;25.582;2023-04-03T17:50:40;8.38;;;5.18;;
59766;SDS011;46248;58.364;25.582;2023-04-03T17:54:02;9.70;;;5.32;;
59766;SDS011;46248;58.364;25.582;2023-04-03T17:57:24;10.32;;;5.38;;
59766;SDS011;46248;58.364;25.582;2023-04-03T18:00:46;17.10;;;6.90;;
59766;SDS011;46248;58.364;25.582;2023-04-03T18:04:08;44.10;;;15.00;;
59766;SDS011;46248;58.364;25.582;2023-04-03T18:07:31;10.55;;;4.30;;
59766;SDS011;46248;58.364;25.582;2023-04-03T18:10:53;10.55;;;3.60;;
59766;SDS011;46248;58.364;25.582;2023-04-03T18:14:16;11.73;;;4.07;;
59766;SDS011;46248;58.364;25.582;2023-04-03T18:17:40;9.43;;;4.20;;
59766;SDS011;46248;58.364;25.582;2023-04-03T18:21:02;26.25;;;10.40;;
59766;SDS011;46248;58.364;25.582;2023-04-03T18:24:26;45.63;;;19.73;;
59766;SDS011;46248;58.364;25.582;2023-04-03T18:27:49;56.25;;;24.65;;
59766;SDS011;46248;58.364;25.582;2023-04-03T18:31:13;44.28;;;20.95;;
59766;SDS011;46248;58.364;25.582;2023-04-03T18:34:36;26.70;;;11.23;;
59766;SDS011;46248;58.364;25.582;2023-04-03T18:37:58;28.50;;;12.50;;
59766;SDS011;46248;58.364;25.582;2023-04-03T18:41:22;31.38;;;11.57;;
59766;SDS011;46248;58.364;25.582;2023-04-03T18:44:50;24.20;;;10.98;;
59766;SDS011;46248;58.364;25.582;2023-04-03T18:48:15;24.05;;;11.23;;
59766;SDS011;46248;58.364;25.582;2023-04-03T18:51:36;22.05;;;9.90;;
59766;SDS011;46248;58.364;25.582;2023-04-03T18:54:59;29.65;;;12.07;;
59766;SDS011;46248;58.364;25.582;2023-04-03T18:58:22;28.73;;;11.40;;
59766;SDS011;46248;58.364;25.582;2023-04-03T19:01:45;27.52;;;12.48;;
59766;SDS011;46248;58.364;25.582;2023-04-03T19:05:08;23.40;;;10.40;;
59766;SDS011;46248;58.364;25.582;2023-04-03T19:08:33;19.42;;;9.20;;
59766;SDS011;46248;58.364;25.582;2023-04-03T19:11:55;18.45;;;8.55;;
59766;SDS011;46248;58.364;25.582;2023-04-03T19:15:19;12.60;;;6.32;;
59766;SDS011;46248;58.364;25.582;2023-04-03T19:18:42;14.07;;;5.88;;
59766;SDS011;46248;58.364;25.582;2023-04-03T19:22:03;16.83;;;8.18;;
59766;SDS011;46248;58.364;25.582;2023-04-03T19:25:26;18.25;;;7.97;;
59766;SDS011;46248;58.364;25.582;2023-04-03T19:28:48;23.02;;;9.52;;
59766;SDS011;46248;58.364;25.582;2023-04-03T19:32:11;10.45;;;4.82;;
59766;SDS011;46248;58.364;25.582;2023-04-03T19:35:33;10.13;;;5.57;;
59766;SDS011;46248;58.364;25.582;2023-04-03T19:38:55;13.13;;;5.72;;
59766;SDS011;46248;58.364;25.582;2023-04-03T19:42:17;14.27;;;5.68;;
59766;SDS011;46248;58.364;25.582;2023-04-03T19:45:39;17.80;;;6.85;;
59766;SDS011;46248;58.364;25.582;2023-04-03T19:49:04;8.93;;;4.00;;
59766;SDS011;46248;58.364;25.582;2023-04-03T19:52:26;10.55;;;4.68;;
59766;SDS011;46248;58.364;25.582;2023-04-03T19:55:47;15.60;;;8.80;;
59766;SDS011;46248;58.364;25.582;2023-04-03T19:59:10;13.30;;;6.80;;
59766;SDS011;46248;58.364;25.582;2023-04-03T20:02:32;18.70;;;10.63;;
59766;SDS011;46248;58.364;25.582;2023-04-03T20:05:55;8.25;;;4.50;;
59766;SDS011;46248;58.364;25.582;2023-04-03T20:09:17;6.80;;;3.83;;
59766;SDS011;46248;58.364;25.582;2023-04-03T20:12:40;7.40;;;2.83;;
59766;SDS011;46248;58.364;25.582;2023-04-03T20:16:03;6.60;;;2.47;;
59766;SDS011;46248;58.364;25.582;2023-04-03T20:19:26;7.22;;;2.90;;
59766;SDS011;46248;58.364;25.582;2023-04-03T20:22:51;11.50;;;2.83;;
59766;SDS011;46248;58.364;25.582;2023-04-03T20:26:17;5.50;;;2.53;;